Time;durP1;ratioP1;P1;durP2;ratioP2;P2;SDS_P1;SDS_P2;PMS_P1;PMS_P2;Temp;Humidity;BMP_temperature;BMP_pressure;BME280_temperature;BME280_humidity;BME280_pressure;Samples;Min_cycle;Max_cycle;Signal;HPM_P1;HPM_P2
2023/07/11 00:00:03;;;;;;;3.97;1.10;;;16.70;99.90;;;;;;5041919;28;20076;-73
2023/07/11 00:02:29;;;;;;;4.57;1.30;;;16.70;99.90;;;;;;5039860;28;20049;-76
2023/07/11 00:04:59;;;;;;;4.40;0.95;;;16.70;99.90;;;;;;5037438;28;20111;-76
2023/07/11 00:07:25;;;;;;;2.83;1.00;;;16.60;99.90;;;;;;5040895;28;20046;-75
2023/07/11 00:09:51;;;;;;;6.60;1.30;;;16.70;99.90;;;;;;5040637;28;20480;-74
2023/07/11 00:12:17;;;;;;;4.05;1.20;;;16.70;99.90;;;;;;5041432;28;20064;-73
2023/07/11 00:14:44;;;;;;;4.95;1.40;;;16.70;99.90;;;;;;5039526;28;20041;-73
2023/07/11 00:17:10;;;;;;;5.80;1.30;;;16.70;99.90;;;;;;5042926;28;20044;-76
2023/07/11 00:19:49;;;;;;;5.78;1.10;;;16.70;99.90;;;;;;5046129;28;20104;-71
2023/07/11 00:22:15;;;;;;;5.32;1.20;;;16.70;99.90;;;;;;5041493;28;20064;-70
2023/07/11 00:24:41;;;;;;;9.13;1.50;;;16.70;99.90;;;;;;5041186;28;20392;-73
2023/07/11 00:27:07;;;;;;;4.05;1.23;;;16.70;99.90;;;;;;5040379;28;20049;-72
2023/07/11 00:29:33;;;;;;;3.05;1.02;;;16.70;99.90;;;;;;5042573;28;20041;-72
2023/07/11 00:31:58;;;;;;;3.40;1.17;;;16.70;99.90;;;;;;5039526;28;20057;-71
2023/07/11 00:34:24;;;;;;;3.65;1.13;;;16.70;99.90;;;;;;5041307;28;20131;-72
2023/07/11 00:36:50;;;;;;;3.83;1.05;;;16.70;99.90;;;;;;5041466;28;20049;-71
2023/07/11 00:39:16;;;;;;;3.58;0.90;;;16.70;99.90;;;;;;5044896;28;20052;-71
2023/07/11 00:41:42;;;;;;;3.95;1.25;;;16.70;99.90;;;;;;5038185;28;20041;-77
2023/07/11 00:44:13;;;;;;;4.68;1.23;;;16.70;99.90;;;;;;5039210;28;20046;-71
2023/07/11 00:46:40;;;;;;;4.07;1.00;;;16.70;99.90;;;;;;5040069;28;20214;-70
2023/07/11 00:49:08;;;;;;;10.23;1.15;;;16.60;99.90;;;;;;5045373;28;20048;-69
2023/07/11 00:51:39;;;;;;;5.88;1.50;;;16.70;99.90;;;;;;5041169;28;20057;-70
2023/07/11 00:54:08;;;;;;;7.95;1.50;;;16.70;99.90;;;;;;5041001;28;20606;-70
2023/07/11 00:56:38;;;;;;;4.07;1.15;;;16.70;99.90;;;;;;5041096;28;20060;-73
2023/07/11 00:59:04;;;;;;;4.82;1.10;;;16.90;99.90;;;;;;5040739;28;20795;-69
2023/07/11 01:01:31;;;;;;;8.27;2.22;;;16.70;99.90;;;;;;5039512;28;20493;-71
2023/07/11 01:03:58;;;;;;;4.63;1.33;;;16.70;99.90;;;;;;5041053;28;20102;-70
2023/07/11 01:06:27;;;;;;;5.88;1.02;;;16.60;99.90;;;;;;5040519;28;20045;-72
2023/07/11 01:08:54;;;;;;;4.88;1.30;;;16.60;99.90;;;;;;5037562;28;20053;-69
2023/07/11 01:11:22;;;;;;;4.28;1.20;;;16.60;99.90;;;;;;5049374;28;20135;-73
2023/07/11 01:13:48;;;;;;;3.45;1.00;;;16.60;99.90;;;;;;5038043;28;20150;-70
2023/07/11 01:16:14;;;;;;;6.78;1.30;;;16.60;99.90;;;;;;5038866;28;20049;-71
2023/07/11 01:18:40;;;;;;;2.92;1.10;;;16.70;99.90;;;;;;5042980;28;20062;-70
2023/07/11 01:21:06;;;;;;;4.85;1.20;;;16.70;99.90;;;;;;5053004;28;20446;-69
2023/07/11 01:23:35;;;;;;;3.20;1.35;;;16.70;99.90;;;;;;5043884;28;20098;-69
2023/07/11 01:26:04;;;;;;;3.25;1.17;;;16.70;99.90;;;;;;5041971;28;20045;-72
2023/07/11 01:28:29;;;;;;;3.70;1.10;;;16.70;99.90;;;;;;5041443;28;20029;-69
2023/07/11 01:30:55;;;;;;;2.92;1.27;;;16.70;99.90;;;;;;5046384;28;20377;-70
2023/07/11 01:33:25;;;;;;;4.82;1.25;;;16.80;99.90;;;;;;5048438;28;20484;-69
2023/07/11 01:35:54;;;;;;;4.25;1.10;;;16.70;99.90;;;;;;5041242;28;20119;-75
2023/07/11 01:38:22;;;;;;;5.72;1.33;;;16.80;99.90;;;;;;5045015;28;20129;-71
2023/07/11 01:40:48;;;;;;;2.15;0.80;;;16.80;99.90;;;;;;5044532;28;20049;-72
2023/07/11 01:43:16;;;;;;;1.67;0.80;;;16.80;99.90;;;;;;5050203;28;20112;-68
2023/07/11 01:45:42;;;;;;;3.08;1.00;;;16.80;99.90;;;;;;5040978;28;20129;-69
2023/07/11 01:48:08;;;;;;;2.33;0.90;;;16.80;99.90;;;;;;5044183;28;20127;-73
2023/07/11 01:50:33;;;;;;;6.70;1.20;;;16.80;99.90;;;;;;5046865;28;20488;-69
2023/07/11 01:52:59;;;;;;;4.97;1.10;;;16.90;99.90;;;;;;5041024;28;20116;-69
2023/07/11 01:55:25;;;;;;;3.63;1.00;;;16.90;99.90;;;;;;5041684;28;20041;-69
2023/07/11 01:57:51;;;;;;;3.45;1.00;;;16.90;99.90;;;;;;5044063;28;20098;-68
2023/07/11 02:00:17;;;;;;;4.70;1.00;;;16.90;99.90;;;;;;5050064;28;20049;-69
2023/07/11 02:02:42;;;;;;;4.35;0.98;;;16.90;99.90;;;;;;5051647;28;20048;-68
2023/07/11 02:05:08;;;;;;;3.80;0.90;;;16.90;99.90;;;;;;5051975;28;20045;-69
2023/07/11 02:07:34;;;;;;;3.85;1.23;;;16.90;99.90;;;;;;5044217;28;20477;-71
2023/07/11 02:09:59;;;;;;;3.92;1.20;;;16.90;99.90;;;;;;5046543;28;20059;-75
2023/07/11 02:12:25;;;;;;;4.35;1.00;;;16.80;99.90;;;;;;5050645;28;20087;-76
2023/07/11 02:14:51;;;;;;;4.03;1.20;;;16.90;99.90;;;;;;5043143;28;20103;-76
2023/07/11 02:17:16;;;;;;;5.57;1.65;;;16.80;99.90;;;;;;5051289;28;20040;-77
2023/07/11 02:19:44;;;;;;;4.88;1.13;;;16.80;99.90;;;;;;5052150;28;20055;-77
2023/07/11 02:22:11;;;;;;;5.55;1.10;;;16.90;99.90;;;;;;5043956;28;20391;-75
2023/07/11 02:24:39;;;;;;;6.28;1.15;;;16.80;99.90;;;;;;5042571;28;20125;-73
2023/07/11 02:27:05;;;;;;;2.97;1.13;;;16.80;99.90;;;;;;5049031;28;20048;-73
2023/07/11 02:29:30;;;;;;;2.67;1.00;;;16.80;99.90;;;;;;5041490;28;20041;-77
2023/07/11 02:31:56;;;;;;;6.13;1.65;;;16.80;99.90;;;;;;5046136;28;20048;-74
2023/07/11 02:34:21;;;;;;;5.65;1.25;;;16.80;99.90;;;;;;5040046;28;20045;-76
2023/07/11 02:36:47;;;;;;;6.82;1.60;;;16.80;99.90;;;;;;5042905;28;20053;-76
2023/07/11 02:39:13;;;;;;;5.97;1.33;;;16.80;99.90;;;;;;5050994;28;20052;-76
2023/07/11 02:41:39;;;;;;;4.82;1.20;;;16.80;99.90;;;;;;5050327;28;20039;-76
2023/07/11 02:44:04;;;;;;;4.80;1.23;;;16.90;99.90;;;;;;5049264;28;20423;-76
2023/07/11 02:46:30;;;;;;;4.30;1.30;;;16.90;99.90;;;;;;5049576;28;20048;-78
2023/07/11 02:48:56;;;;;;;3.30;1.40;;;16.80;99.90;;;;;;5050896;28;20057;-75
2023/07/11 02:51:22;;;;;;;4.57;1.33;;;16.90;99.90;;;;;;5042974;28;20093;-78
2023/07/11 02:53:48;;;;;;;6.03;1.63;;;16.90;99.90;;;;;;5041834;28;20052;-75
2023/07/11 02:56:15;;;;;;;5.82;1.48;;;16.90;99.90;;;;;;5040712;28;20045;-78
2023/07/11 02:58:40;;;;;;;4.35;1.40;;;16.90;99.90;;;;;;5046852;28;20037;-77
2023/07/11 03:01:06;;;;;;;6.45;1.77;;;16.80;99.90;;;;;;5050502;28;20053;-76
2023/07/11 03:03:32;;;;;;;5.10;1.40;;;16.90;99.90;;;;;;5042640;28;20393;-78
2023/07/11 03:05:57;;;;;;;7.43;1.65;;;16.90;99.90;;;;;;5042763;28;20061;-78
2023/07/11 03:08:24;;;;;;;14.25;2.92;;;16.90;99.90;;;;;;5041208;28;20044;-76
2023/07/11 03:10:50;;;;;;;6.97;1.73;;;16.90;99.90;;;;;;5043017;28;20048;-77
2023/07/11 03:13:15;;;;;;;8.18;1.92;;;16.90;99.90;;;;;;5043469;28;20107;-78
2023/07/11 03:15:41;;;;;;;7.28;2.85;;;16.90;99.90;;;;;;5047511;28;20052;-75
2023/07/11 03:18:08;;;;;;;6.15;2.03;;;16.90;99.90;;;;;;5050699;28;20040;-77
2023/07/11 03:20:37;;;;;;;4.63;1.80;;;16.90;99.90;;;;;;5047783;28;20060;-76
2023/07/11 03:23:03;;;;;;;5.70;1.90;;;16.90;99.90;;;;;;5042099;28;20048;-78
2023/07/11 03:25:29;;;;;;;8.18;1.80;;;16.90;99.90;;;;;;5050629;28;20029;-75
2023/07/11 03:27:54;;;;;;;8.07;1.75;;;16.90;99.90;;;;;;5048222;28;20114;-78
2023/07/11 03:30:20;;;;;;;6.70;1.98;;;16.90;99.90;;;;;;5044485;28;20041;-71
2023/07/11 03:32:46;;;;;;;9.55;2.00;;;16.80;99.90;;;;;;5023550;28;20061;-76
2023/07/11 03:35:11;;;;;;;5.95;2.13;;;16.90;99.90;;;;;;5041712;28;20508;-76
2023/07/11 03:37:37;;;;;;;9.18;2.25;;;16.90;99.90;;;;;;5045171;28;20048;-76
2023/07/11 03:40:03;;;;;;;9.35;1.90;;;16.80;99.90;;;;;;5044484;28;20056;-76
2023/07/11 03:42:29;;;;;;;8.93;1.80;;;16.80;99.90;;;;;;5048005;28;20036;-76
2023/07/11 03:44:55;;;;;;;4.78;1.70;;;16.80;99.90;;;;;;5049649;28;20396;-77
2023/07/11 03:47:21;;;;;;;7.50;2.00;;;16.80;99.90;;;;;;5041887;28;20048;-79
2023/07/11 03:49:46;;;;;;;5.63;2.15;;;16.80;99.90;;;;;;5040118;28;20447;-78
2023/07/11 03:52:12;;;;;;;5.53;1.80;;;16.90;99.90;;;;;;5044533;28;20084;-77
2023/07/11 03:54:37;;;;;;;8.52;2.15;;;16.90;99.90;;;;;;5041790;28;20491;-78
2023/07/11 03:57:03;;;;;;;7.35;2.00;;;16.90;99.90;;;;;;5041471;28;20049;-76
2023/07/11 03:59:30;;;;;;;6.47;2.20;;;16.90;99.90;;;;;;5039044;28;20395;-76
2023/07/11 04:01:56;;;;;;;7.57;2.58;;;16.80;99.90;;;;;;5048284;28;20067;-74
2023/07/11 04:04:22;;;;;;;6.18;2.13;;;16.80;99.90;;;;;;5048144;28;20052;-77
2023/07/11 04:06:48;;;;;;;5.97;2.40;;;16.90;99.90;;;;;;5045467;28;20396;-77
2023/07/11 04:09:14;;;;;;;10.27;2.30;;;16.90;99.90;;;;;;5038258;28;20389;-78
2023/07/11 04:11:39;;;;;;;10.90;3.30;;;16.90;99.90;;;;;;5047505;28;20059;-76
2023/07/11 04:14:06;;;;;;;4.53;2.05;;;16.90;99.90;;;;;;5045731;28;20053;-75
2023/07/11 04:16:31;;;;;;;8.27;2.10;;;16.90;99.90;;;;;;5048800;28;20048;-73
2023/07/11 04:18:57;;;;;;;7.22;2.90;;;16.90;99.90;;;;;;5046900;28;20510;-74
2023/07/11 04:21:22;;;;;;;9.65;2.92;;;16.90;99.90;;;;;;5039747;28;20049;-68
2023/07/11 04:23:49;;;;;;;6.95;2.63;;;16.90;99.90;;;;;;5041896;28;20049;-72
2023/07/11 04:26:15;;;;;;;9.20;2.65;;;16.90;99.90;;;;;;5048304;28;20122;-70
2023/07/11 04:28:40;;;;;;;8.93;3.40;;;16.90;99.90;;;;;;5049464;28;20484;-69
2023/07/11 04:31:06;;;;;;;6.75;3.08;;;16.90;99.90;;;;;;5037985;28;20041;-69
2023/07/11 04:33:32;;;;;;;10.13;3.15;;;17.00;99.90;;;;;;5042758;28;20045;-69
2023/07/11 04:36:10;;;;;;;9.02;2.88;;;16.90;99.90;;;;;;5041173;28;20056;-73
2023/07/11 04:38:36;;;;;;;11.93;3.05;;;17.00;99.90;;;;;;5049296;28;20040;-71
2023/07/11 04:41:03;;;;;;;10.68;3.28;;;17.00;99.90;;;;;;5041023;28;20036;-70
2023/07/11 04:43:29;;;;;;;10.82;3.28;;;17.00;99.90;;;;;;5041082;28;20098;-74
2023/07/11 04:45:58;;;;;;;9.07;3.67;;;17.00;99.90;;;;;;5049349;28;20392;-70
2023/07/11 04:48:24;;;;;;;11.20;3.47;;;17.00;99.90;;;;;;5041758;28;20044;-77
2023/07/11 04:50:59;;;;;;;9.73;3.80;;;17.00;99.90;;;;;;5050009;28;20041;-70
2023/07/11 04:53:26;;;;;;;9.95;3.40;;;17.00;99.90;;;;;;5041819;28;20042;-73
2023/07/11 04:55:56;;;;;;;8.70;3.63;;;16.90;99.90;;;;;;5043715;28;20049;-72
2023/07/11 04:58:21;;;;;;;11.00;2.92;;;17.00;99.90;;;;;;5053173;28;20036;-71
2023/07/11 05:00:47;;;;;;;8.18;3.35;;;17.00;99.90;;;;;;5047027;28;20053;-69
2023/07/11 05:03:13;;;;;;;8.10;2.92;;;17.10;99.90;;;;;;5049776;28;20519;-72
2023/07/11 05:05:38;;;;;;;9.95;3.63;;;17.10;99.90;;;;;;5044655;28;20116;-70
2023/07/11 05:08:04;;;;;;;8.85;3.40;;;17.20;99.90;;;;;;5052334;28;20044;-72
2023/07/11 05:10:29;;;;;;;8.05;3.72;;;17.20;99.90;;;;;;5050713;28;20064;-70
2023/07/11 05:12:55;;;;;;;8.23;3.90;;;17.30;99.90;;;;;;5051603;28;20273;-74
2023/07/11 05:15:21;;;;;;;8.02;3.67;;;17.30;99.90;;;;;;5051417;28;20076;-70
2023/07/11 05:17:46;;;;;;;9.68;3.60;;;17.40;99.90;;;;;;5044277;28;20041;-72
2023/07/11 05:20:12;;;;;;;8.40;3.75;;;17.50;99.90;;;;;;5047347;28;20116;-69
2023/07/11 05:22:38;;;;;;;9.88;3.90;;;17.60;99.90;;;;;;5041527;28;20132;-72
2023/07/11 05:25:04;;;;;;;9.23;3.67;;;17.70;99.90;;;;;;5044407;28;20029;-71
2023/07/11 05:27:30;;;;;;;9.95;3.85;;;17.80;99.90;;;;;;5044219;28;20120;-73
2023/07/11 05:29:56;;;;;;;9.40;3.85;;;18.00;99.90;;;;;;5049149;28;20583;-74
2023/07/11 05:32:22;;;;;;;12.80;4.90;;;18.10;99.90;;;;;;5047503;28;20120;-72
2023/07/11 05:34:47;;;;;;;9.25;3.53;;;18.20;99.90;;;;;;5042650;28;20049;-72
2023/07/11 05:37:13;;;;;;;10.10;4.00;;;18.30;99.90;;;;;;5041293;28;20488;-72
2023/07/11 05:39:39;;;;;;;9.98;4.13;;;18.40;99.90;;;;;;5047269;28;20044;-70
2023/07/11 05:42:05;;;;;;;10.95;4.75;;;18.50;99.90;;;;;;5050975;28;20491;-71
2023/07/11 05:44:31;;;;;;;9.63;4.60;;;18.50;99.90;;;;;;5052326;28;20520;-71
2023/07/11 05:46:56;;;;;;;12.63;4.55;;;18.60;99.90;;;;;;5048163;28;20072;-71
2023/07/11 05:49:22;;;;;;;12.73;4.70;;;18.70;99.90;;;;;;5049129;28;20129;-71
2023/07/11 05:51:48;;;;;;;10.45;3.97;;;18.70;99.90;;;;;;5046218;28;20117;-70
2023/07/11 05:54:13;;;;;;;9.50;4.40;;;18.80;99.90;;;;;;5041757;28;20406;-70
2023/07/11 05:56:40;;;;;;;14.65;4.28;;;18.90;99.90;;;;;;5046368;28;20048;-70
2023/07/11 05:59:06;;;;;;;10.32;4.20;;;19.10;99.90;;;;;;5051446;28;20502;-73
2023/07/11 06:01:32;;;;;;;11.55;4.45;;;19.10;99.90;;;;;;5048644;28;20056;-72
2023/07/11 06:04:12;;;;;;;7.30;4.20;;;19.20;99.90;;;;;;5043664;28;20091;-71
2023/07/11 06:06:42;;;;;;;10.05;4.28;;;19.30;99.90;;;;;;5043431;28;20514;-71
2023/07/11 06:09:18;;;;;;;8.95;4.28;;;19.30;99.90;;;;;;5043375;28;20052;-72
2023/07/11 06:11:45;;;;;;;10.48;4.18;;;19.50;99.90;;;;;;5050120;28;20149;-69
2023/07/11 06:14:11;;;;;;;12.30;4.63;;;19.60;99.90;;;;;;5051183;28;20041;-71
2023/07/11 06:16:38;;;;;;;10.35;4.25;;;19.70;99.90;;;;;;5051608;28;20803;-69
2023/07/11 06:19:04;;;;;;;10.13;4.20;;;19.80;99.90;;;;;;5047373;28;20045;-71
2023/07/11 06:21:30;;;;;;;11.45;4.05;;;19.90;99.90;;;;;;5040436;28;20050;-70
2023/07/11 06:23:56;;;;;;;11.88;3.70;;;20.10;99.90;;;;;;5043237;28;20033;-71
2023/07/11 06:26:21;;;;;;;11.85;4.60;;;20.20;99.90;;;;;;5043102;28;20064;-69
2023/07/11 06:28:47;;;;;;;11.38;4.35;;;20.30;99.90;;;;;;5045703;28;20060;-71
2023/07/11 06:31:13;;;;;;;10.77;3.88;;;20.40;99.90;;;;;;5043233;28;20102;-75
2023/07/11 06:33:39;;;;;;;7.60;4.10;;;20.50;99.90;;;;;;5043221;28;20376;-69
2023/07/11 06:36:06;;;;;;;12.77;3.92;;;20.70;99.90;;;;;;5047501;28;20128;-69
2023/07/11 06:38:32;;;;;;;8.40;4.18;;;20.70;99.90;;;;;;5045812;28;20056;-68
2023/07/11 06:40:58;;;;;;;10.93;3.35;;;20.80;99.90;;;;;;5042849;28;20049;-68
2023/07/11 06:43:25;;;;;;;12.85;3.83;;;21.00;99.90;;;;;;5041736;28;20063;-69
2023/07/11 06:45:56;;;;;;;8.88;4.13;;;21.10;99.90;;;;;;5042829;28;20045;-72
2023/07/11 06:48:24;;;;;;;11.18;3.67;;;21.30;99.90;;;;;;5042791;28;20508;-68
2023/07/11 06:50:52;;;;;;;11.55;4.03;;;21.50;99.90;;;;;;5051477;28;20399;-68
2023/07/11 06:53:19;;;;;;;9.77;3.90;;;21.70;99.90;;;;;;5041588;28;20053;-68
2023/07/11 06:55:50;;;;;;;16.40;3.70;;;22.00;99.90;;;;;;5045725;28;20093;-68
2023/07/11 06:58:16;;;;;;;9.05;3.85;;;22.10;99.90;;;;;;5040780;28;20045;-68
2023/07/11 07:00:42;;;;;;;8.77;3.88;;;22.20;99.90;;;;;;5041754;28;20417;-75
2023/07/11 07:03:14;;;;;;;7.40;3.33;;;22.40;99.90;;;;;;5043181;28;20049;-77
2023/07/11 07:05:57;;;;;;;13.65;4.20;;;22.60;99.90;;;;;;5043186;28;20111;-71
2023/07/11 07:08:24;;;;;;;11.90;3.83;;;22.80;99.90;;;;;;5040506;28;20044;-74
2023/07/11 07:10:50;;;;;;;14.48;3.78;;;23.10;99.90;;;;;;5039257;28;20103;-77
2023/07/11 07:13:17;;;;;;;11.70;3.65;;;23.20;99.90;;;;;;5044270;28;20049;-77
2023/07/11 07:15:50;;;;;;;8.65;3.42;;;23.30;99.90;;;;;;5046788;28;20065;-77
2023/07/11 07:18:16;;;;;;;11.18;3.03;;;23.50;99.90;;;;;;5039220;28;20424;-75
2023/07/11 07:20:44;;;;;;;13.10;3.70;;;23.60;99.90;;;;;;5048713;28;20079;-77
2023/07/11 07:23:09;;;;;;;8.90;2.90;;;23.60;99.90;;;;;;5042379;28;20051;-73
2023/07/11 07:25:36;;;;;;;9.98;3.03;;;23.70;99.90;;;;;;5049694;28;20033;-71
2023/07/11 07:28:02;;;;;;;9.38;3.67;;;23.70;99.90;;;;;;5045694;28;20045;-72
2023/07/11 07:30:28;;;;;;;7.07;3.60;;;23.60;99.90;;;;;;5045731;28;20041;-71
2023/07/11 07:32:53;;;;;;;6.35;3.33;;;23.70;99.90;;;;;;5041259;28;20450;-70
2023/07/11 07:35:19;;;;;;;7.18;2.80;;;23.60;99.90;;;;;;5050172;28;20045;-75
2023/07/11 07:37:45;;;;;;;9.80;3.05;;;23.60;99.90;;;;;;5042564;28;20056;-76
2023/07/11 07:40:10;;;;;;;8.68;3.22;;;23.70;99.90;;;;;;5041521;28;20055;-74
2023/07/11 07:42:36;;;;;;;8.20;2.40;;;23.60;99.90;;;;;;5041503;28;20476;-73
2023/07/11 07:45:02;;;;;;;7.80;3.35;;;23.60;99.90;;;;;;5040555;28;20120;-75
2023/07/11 07:47:28;;;;;;;7.82;2.60;;;23.60;99.90;;;;;;5042459;28;20032;-75
2023/07/11 07:49:55;;;;;;;7.80;2.75;;;23.60;99.90;;;;;;5050227;28;20048;-73
2023/07/11 07:52:21;;;;;;;6.53;2.83;;;23.60;99.90;;;;;;5039036;28;20056;-76
2023/07/11 07:54:46;;;;;;;6.40;2.47;;;23.60;99.90;;;;;;5045656;28;20167;-67
2023/07/11 07:57:12;;;;;;;11.20;3.00;;;23.70;99.90;;;;;;5047486;28;20396;-69
2023/07/11 07:59:38;;;;;;;9.02;3.15;;;23.60;99.90;;;;;;5045437;28;20483;-77
2023/07/11 08:02:04;;;;;;;6.78;2.72;;;23.70;99.90;;;;;;5038710;28;20056;-79
2023/07/11 08:04:30;;;;;;;7.43;2.95;;;23.80;99.90;;;;;;5039021;28;20049;-72
2023/07/11 08:06:56;;;;;;;9.88;3.30;;;24.00;99.90;;;;;;5044525;28;20049;-68
2023/07/11 08:09:22;;;;;;;8.20;2.95;;;24.10;99.90;;;;;;5021510;28;20053;-77
2023/07/11 08:11:47;;;;;;;10.07;2.88;;;24.20;99.90;;;;;;5041401;28;20098;-72
2023/07/11 08:14:13;;;;;;;7.53;3.40;;;24.20;99.90;;;;;;5040955;28;20048;-73
2023/07/11 08:16:39;;;;;;;11.25;3.28;;;24.30;99.90;;;;;;5039999;28;20084;-69
2023/07/11 08:19:05;;;;;;;7.53;2.70;;;24.30;99.90;;;;;;5041665;28;20041;-79
2023/07/11 08:21:32;;;;;;;9.98;2.97;;;24.30;99.90;;;;;;5041230;28;20559;-78
2023/07/11 08:23:58;;;;;;;6.03;3.15;;;24.30;99.90;;;;;;5041224;28;20045;-73
2023/07/11 08:26:23;;;;;;;12.10;2.97;;;24.30;99.90;;;;;;5048132;28;20127;-81
2023/07/11 08:28:50;;;;;;;10.88;2.97;;;24.30;99.90;;;;;;5042291;28;20119;-77
2023/07/11 08:31:16;;;;;;;6.50;2.20;;;24.40;99.90;;;;;;5049621;28;20253;-82
2023/07/11 08:33:42;;;;;;;5.78;2.33;;;24.50;99.90;;;;;;5041496;28;20106;-78
2023/07/11 08:36:08;;;;;;;7.68;2.50;;;24.50;99.90;;;;;;5040948;28;20040;-79
2023/07/11 08:38:33;;;;;;;6.22;2.25;;;24.50;99.90;;;;;;5041089;28;20380;-75
2023/07/11 08:41:15;;;;;;;6.03;2.33;;;24.50;99.90;;;;;;5040708;28;20068;-70
2023/07/11 08:43:43;;;;;;;10.32;2.35;;;24.60;99.90;;;;;;5043299;28;20049;-67
2023/07/11 08:46:14;;;;;;;7.18;2.35;;;24.90;99.90;;;;;;5039372;28;20550;-65
2023/07/11 08:48:53;;;;;;;6.88;2.35;;;25.10;99.90;;;;;;5041193;28;20132;-67
2023/07/11 08:51:27;;;;;;;6.88;2.38;;;25.30;99.90;;;;;;5038656;28;20128;-70
2023/07/11 08:54:13;;;;;;;7.88;2.42;;;25.60;99.90;;;;;;5038257;28;20077;-66
2023/07/11 08:56:42;;;;;;;8.45;2.50;;;25.70;99.90;;;;;;5041856;28;20045;-66
2023/07/11 08:59:32;;;;;;;7.72;2.28;;;25.90;99.90;;;;;;5041261;28;20117;-68
2023/07/11 09:02:09;;;;;;;7.50;2.10;;;26.00;99.90;;;;;;5036672;28;20061;-66
2023/07/11 09:04:43;;;;;;;10.32;1.88;;;26.20;99.90;;;;;;5036356;28;20041;-66
2023/07/11 09:07:38;;;;;;;5.70;1.98;;;26.30;99.90;;;;;;5030885;28;20068;-65
2023/07/11 09:10:29;;;;;;;9.27;2.40;;;26.40;99.90;;;;;;5044112;28;20076;-67
2023/07/11 09:13:05;;;;;;;6.03;2.35;;;26.60;99.90;;;;;;5040467;28;20415;-67
2023/07/11 09:16:10;;;;;;;8.32;2.35;;;26.70;99.90;;;;;;5039534;28;20132;-68
2023/07/11 09:18:44;;;;;;;10.97;1.90;;;26.70;99.90;;;;;;5026822;28;20064;-67
2023/07/11 09:21:18;;;;;;;4.60;1.80;;;26.70;99.90;;;;;;5026858;28;20132;-68
2023/07/11 09:23:56;;;;;;;7.25;1.70;;;26.90;99.90;;;;;;5026407;28;20093;-67
2023/07/11 09:26:29;;;;;;;7.47;2.10;;;27.00;99.90;;;;;;5026554;28;20386;-70
2023/07/11 09:29:04;;;;;;;8.82;2.13;;;27.10;99.90;;;;;;5026568;28;20077;-71
2023/07/11 09:32:05;;;;;;;6.05;2.20;;;27.10;99.90;;;;;;5010029;28;20144;-71
2023/07/11 09:34:37;;;;;;;11.98;2.28;;;27.20;99.90;;;;;;5021139;28;20128;-71
2023/07/11 09:37:32;;;;;;;7.07;1.80;;;27.40;99.90;;;;;;5027283;28;20049;-72
2023/07/11 09:40:09;;;;;;;6.43;2.05;;;27.50;99.90;;;;;;4955016;28;20065;-72
2023/07/11 09:42:43;;;;;;;7.60;1.98;;;27.70;99.90;;;;;;4987608;28;20548;-72
2023/07/11 09:45:13;;;;;;;;;;;27.70;99.50;;;;;;4987547;28;20066;-73
2023/07/11 09:47:41;;;;;;;10.32;2.25;;;27.70;99.50;;;;;;4970877;28;19933;-71
2023/07/11 09:50:37;;;;;;;7.35;1.83;;;27.80;99.20;;;;;;4971141;28;20114;-73
2023/07/11 09:53:13;;;;;;;19.83;2.20;;;27.80;99.30;;;;;;4955075;28;20058;-70
2023/07/11 09:55:39;;;;;;;5.55;1.67;;;27.80;99.30;;;;;;4970728;28;20642;-76
2023/07/11 09:58:04;;;;;;;6.90;1.70;;;27.90;99.70;;;;;;4982414;28;20058;-71
2023/07/11 10:00:30;;;;;;;7.35;1.90;;;27.90;99.70;;;;;;4965795;28;20406;-71
2023/07/11 10:02:59;;;;;;;6.63;1.80;;;28.00;99.80;;;;;;4981952;28;20094;-70
2023/07/11 10:05:25;;;;;;;8.82;1.60;;;28.00;99.50;;;;;;4981673;28;20096;-70
2023/07/11 10:08:03;;;;;;;7.00;1.90;;;28.00;99.70;;;;;;4990053;28;20050;-72
2023/07/11 10:10:29;;;;;;;6.82;2.20;;;27.90;99.00;;;;;;4964404;28;20073;-71
2023/07/11 10:12:55;;;;;;;12.30;2.10;;;27.90;99.30;;;;;;4978875;28;20051;-70
2023/07/11 10:15:25;;;;;;;9.82;2.08;;;28.00;99.30;;;;;;4970445;28;20105;-69
2023/07/11 10:17:56;;;;;;;5.57;1.58;;;28.00;99.60;;;;;;5037843;28;20504;-70
2023/07/11 10:20:22;;;;;;;5.28;1.85;;;27.90;98.90;;;;;;5043814;28;20048;-71
2023/07/11 10:22:50;;;;;;;4.70;1.70;;;27.80;98.80;;;;;;5039536;28;20049;-68
2023/07/11 10:25:23;;;;;;;7.13;1.77;;;27.80;98.80;;;;;;5046449;28;20076;-70
2023/07/11 10:27:57;;;;;;;6.00;2.05;;;27.80;99.00;;;;;;5026609;28;20045;-69
2023/07/11 10:30:28;;;;;;;11.48;1.77;;;27.90;99.10;;;;;;5041791;28;20036;-71
2023/07/11 10:33:26;;;;;;;6.10;2.20;;;27.80;98.60;;;;;;5048190;28;20044;-68
2023/07/11 10:36:02;;;;;;;9.35;2.30;;;27.70;98.80;;;;;;5012256;28;20501;-73
2023/07/11 10:38:43;;;;;;;10.15;2.47;;;27.70;98.90;;;;;;5012384;28;20065;-66
2023/07/11 10:41:21;;;;;;;5.03;1.67;;;27.80;98.70;;;;;;5028717;28;20072;-69
2023/07/11 10:43:51;;;;;;;8.25;1.60;;;27.80;98.90;;;;;;5009101;28;20049;-69
2023/07/11 10:46:45;;;;;;;7.20;2.40;;;27.80;98.60;;;;;;5020697;28;20076;-69
2023/07/11 10:49:17;;;;;;;10.52;2.00;;;27.70;97.80;;;;;;5027131;28;20049;-68
2023/07/11 10:51:55;;;;;;;7.18;1.60;;;27.70;98.40;;;;;;5012520;28;20862;-70
2023/07/11 10:54:49;;;;;;;5.80;2.22;;;27.70;98.70;;;;;;5028808;28;20092;-68
2023/07/11 10:57:31;;;;;;;9.18;2.40;;;27.80;98.60;;;;;;5028542;28;20405;-67
2023/07/11 10:59:57;;;;;;;8.48;2.10;;;27.90;98.70;;;;;;5028135;28;20054;-68
2023/07/11 11:02:48;;;;;;;7.45;1.83;;;27.90;98.80;;;;;;5028680;28;20056;-71
2023/07/11 11:05:46;;;;;;;8.52;2.05;;;28.00;99.10;;;;;;5028490;28;20057;-68
2023/07/11 11:08:56;;;;;;;7.60;2.13;;;27.90;98.20;;;;;;5012080;28;20054;-69
2023/07/11 11:11:27;;;;;;;4.95;2.10;;;27.80;98.50;;;;;;5012042;28;20091;-68
2023/07/11 11:14:05;;;;;;;6.90;2.13;;;27.90;98.80;;;;;;5045285;28;20057;-68
2023/07/11 11:16:47;;;;;;;6.40;2.33;;;28.00;98.50;;;;;;5040418;28;20045;-69
2023/07/11 11:19:47;;;;;;;7.85;2.30;;;28.10;98.60;;;;;;5040809;28;20110;-69
2023/07/11 11:22:25;;;;;;;6.88;2.33;;;28.10;98.50;;;;;;5044847;28;20132;-69
2023/07/11 11:25:00;;;;;;;12.93;2.63;;;28.30;98.40;;;;;;5041769;28;20517;-69
2023/07/11 11:27:41;;;;;;;8.23;2.25;;;28.40;98.10;;;;;;5042203;28;20043;-68
2023/07/11 11:30:10;;;;;;;9.30;2.53;;;28.50;98.70;;;;;;5041836;28;20080;-70
2023/07/11 11:32:44;;;;;;;8.40;2.38;;;28.70;98.90;;;;;;5050438;28;20036;-68
2023/07/11 11:35:22;;;;;;;6.82;2.13;;;28.70;98.50;;;;;;5042771;28;20059;-68
2023/07/11 11:38:25;;;;;;;8.45;2.45;;;28.90;98.60;;;;;;5050015;28;20044;-69
2023/07/11 11:40:57;;;;;;;6.47;2.35;;;29.00;98.80;;;;;;5042216;28;20057;-70
2023/07/11 11:43:25;;;;;;;8.13;2.30;;;28.80;98.00;;;;;;5049934;28;20491;-71
2023/07/11 11:45:52;;;;;;;6.80;1.98;;;28.70;98.30;;;;;;5042235;28;20056;-70
2023/07/11 11:48:21;;;;;;;7.30;2.17;;;28.60;98.30;;;;;;5041879;28;20060;-74
2023/07/11 11:50:48;;;;;;;7.80;2.15;;;28.60;98.20;;;;;;5041667;28;20108;-73
2023/07/11 11:53:32;;;;;;;8.02;2.15;;;28.70;98.00;;;;;;5041270;28;20048;-73
2023/07/11 11:56:01;;;;;;;7.47;1.90;;;28.80;98.00;;;;;;5042398;28;20125;-75
2023/07/11 11:58:29;;;;;;;13.35;3.17;;;29.00;98.20;;;;;;5041424;28;20123;-73
2023/07/11 12:00:57;;;;;;;10.20;2.22;;;28.80;97.90;;;;;;5041205;28;20041;-73
2023/07/11 12:03:39;;;;;;;6.00;2.30;;;28.90;97.90;;;;;;5041200;28;20037;-73
2023/07/11 12:06:29;;;;;;;6.28;2.15;;;29.10;98.20;;;;;;5042415;28;20119;-72
2023/07/11 12:09:17;;;;;;;7.00;2.17;;;29.30;98.20;;;;;;5043941;28;20411;-73
2023/07/11 12:12:06;;;;;;;8.60;2.47;;;29.10;97.40;;;;;;5046299;28;20048;-71
2023/07/11 12:14:51;;;;;;;10.52;2.45;;;29.10;98.00;;;;;;5043400;28;20098;-73
2023/07/11 12:17:32;;;;;;;7.30;2.10;;;29.10;96.80;;;;;;5044002;28;20137;-73
2023/07/11 12:20:05;;;;;;;8.88;2.08;;;29.20;97.50;;;;;;5045280;28;20520;-74
2023/07/11 12:22:36;;;;;;;9.90;2.40;;;29.20;97.90;;;;;;5046558;28;20084;-72
2023/07/11 12:25:05;;;;;;;6.45;2.30;;;29.20;97.80;;;;;;5043156;28;20045;-70
2023/07/11 12:27:31;;;;;;;8.93;2.13;;;29.10;97.90;;;;;;5041578;28;20049;-71
2023/07/11 12:29:58;;;;;;;7.82;2.55;;;29.00;98.10;;;;;;5040742;28;20047;-72
2023/07/11 12:32:32;;;;;;;8.48;2.30;;;28.90;97.70;;;;;;5047803;28;20487;-73
2023/07/11 12:35:04;;;;;;;9.98;3.75;;;29.00;97.40;;;;;;5040999;28;20053;-72
2023/07/11 12:37:48;;;;;;;8.30;3.22;;;29.10;98.00;;;;;;5040340;28;20045;-75
2023/07/11 12:40:45;;;;;;;7.72;2.80;;;29.10;98.00;;;;;;5041937;28;20036;-74
2023/07/11 12:43:21;;;;;;;12.43;3.30;;;28.90;97.70;;;;;;5040888;28;20476;-72
2023/07/11 12:45:55;;;;;;;14.35;2.75;;;28.70;97.70;;;;;;5039861;28;20081;-72
2023/07/11 12:48:25;;;;;;;12.52;2.63;;;28.70;97.70;;;;;;5041791;28;20052;-73
2023/07/11 12:50:59;;;;;;;10.48;2.63;;;28.80;98.00;;;;;;5041070;28;20037;-71
2023/07/11 12:53:25;;;;;;;8.68;2.10;;;28.70;97.60;;;;;;5040997;28;20121;-74
2023/07/11 12:55:53;;;;;;;11.02;2.55;;;28.60;97.50;;;;;;5039709;28;20123;-73
2023/07/11 12:58:30;;;;;;;12.27;2.50;;;28.40;97.60;;;;;;5038869;28;20045;-69